Time;durP1;ratioP1;P1;durP2;ratioP2;P2;SDS_P1;SDS_P2;PMS_P1;PMS_P2;Temp;Humidity;BMP_temperature;BMP_pressure;BME280_temperature;BME280_humidity;BME280_pressure;Samples;Min_cycle;Max_cycle;Signal;HPM_P1;HPM_P2
2021/09/17 00:01:47;;;;;;;2.87;2.30;;;;;;;13.56;90.81;100619.03;4987409;28;20328;-78
2021/09/17 00:04:13;;;;;;;2.63;2.43;;;;;;;13.40;91.97;100566.16;4994996;28;20643;-78
2021/09/17 00:06:39;;;;;;;4.47;2.20;;;;;;;13.41;92.34;100539.06;4986866;28;20246;-78
2021/09/17 00:09:06;;;;;;;2.90;2.70;;;;;;;13.21;92.77;100519.47;4988961;28;20255;-78
2021/09/17 00:11:32;;;;;;;2.63;1.90;;;;;;;13.28;93.73;100500.06;4987759;28;20200;-78
2021/09/17 00:14:00;;;;;;;3.70;2.47;;;;;;;13.25;93.70;100504.53;4987380;28;20663;-77
2021/09/17 00:16:26;;;;;;;4.50;2.00;;;;;;;13.43;94.44;100484.81;4994237;28;20220;-78
2021/09/17 00:18:54;;;;;;;4.17;2.60;;;;;;;13.24;93.79;100526.38;4994642;28;20232;-78
2021/09/17 00:21:20;;;;;;;3.30;2.50;;;;;;;13.24;93.84;100506.31;4994493;28;20578;-78
2021/09/17 00:23:47;;;;;;;11.50;3.77;;;;;;;13.05;94.64;100485.00;4993772;28;20242;-78
2021/09/17 00:26:13;;;;;;;2.90;2.50;;;;;;;13.09;94.81;100476.13;4988837;28;20238;-78
2021/09/17 00:28:39;;;;;;;4.70;2.17;;;;;;;13.28;95.56;100452.88;4986269;28;20257;-78
2021/09/17 00:31:06;;;;;;;3.83;3.50;;;;;;;13.22;94.59;100473.16;4992743;28;20265;-78
2021/09/17 00:33:32;;;;;;;4.80;3.10;;;;;;;13.21;94.47;100489.78;4982440;28;20197;-78
2021/09/17 00:36:02;;;;;;;2.83;2.63;;;;;;;13.18;94.80;100495.13;4992982;28;20579;-78
2021/09/17 00:38:28;;;;;;;3.20;3.00;;;;;;;12.91;95.60;100459.19;4983680;28;20280;-77
2021/09/17 00:40:55;;;;;;;3.30;3.00;;;;;;;12.86;96.15;100434.88;4983286;28;20310;-78
2021/09/17 00:43:21;;;;;;;3.23;2.87;;;;;;;12.90;96.60;100438.25;4995274;28;20238;-78
2021/09/17 00:45:47;;;;;;;3.07;2.77;;;;;;;12.97;96.37;100429.31;4995093;28;20233;-77
2021/09/17 00:48:14;;;;;;;5.27;3.83;;;;;;;12.96;96.71;100434.59;4993393;28;20242;-78
2021/09/17 00:50:40;;;;;;;4.23;2.70;;;;;;;13.07;96.14;100435.16;4980193;28;20275;-78
2021/09/17 00:53:09;;;;;;;4.10;3.40;;;;;;;13.04;96.24;100445.72;4986161;28;20213;-77
2021/09/17 00:55:35;;;;;;;2.60;2.40;;;;;;;13.13;95.51;100442.84;4983424;28;20295;-77
2021/09/17 00:58:02;;;;;;;3.73;3.43;;;;;;;13.21;95.40;100453.09;4983225;28;20202;-76
2021/09/17 01:00:28;;;;;;;5.47;3.60;;;;;;;13.08;95.84;100458.72;4978413;28;20312;-77
2021/09/17 01:02:54;;;;;;;4.90;4.40;;;;;;;12.98;96.42;100431.03;4994960;28;20635;-77
2021/09/17 01:05:21;;;;;;;5.27;4.47;;;;;;;12.81;97.47;100412.34;4985793;28;20192;-77
2021/09/17 01:07:47;;;;;;;5.33;4.93;;;;;;;12.78;97.63;100392.31;4987001;28;20247;-78
2021/09/17 01:10:15;;;;;;;5.00;4.60;;;;;;;12.84;98.01;100376.44;4986589;28;20723;-78
2021/09/17 01:12:43;;;;;;;4.53;4.13;;;;;;;12.75;97.94;100378.47;4993043;28;20204;-78
2021/09/17 01:15:10;;;;;;;6.27;5.70;;;;;;;12.67;98.53;100365.59;4984922;28;20262;-78
2021/09/17 01:17:38;;;;;;;5.57;5.07;;;;;;;12.67;98.85;100361.19;4992863;28;20204;-78
2021/09/17 01:20:07;;;;;;;6.57;6.00;;;;;;;12.60;99.77;100350.94;4991471;28;20271;-78
2021/09/17 01:22:35;;;;;;;7.77;6.93;;;;;;;12.50;99.56;100338.09;4986993;28;20622;-78
2021/09/17 01:25:02;;;;;;;7.27;6.57;;;;;;;12.48;100.00;100329.44;4986342;28;20201;-78
2021/09/17 01:27:28;;;;;;;8.83;7.03;;;;;;;12.55;99.80;100331.88;4989457;28;20254;-78
2021/09/17 01:29:54;;;;;;;11.70;7.40;;;;;;;12.55;100.00;100326.63;4996132;28;20251;-78
2021/09/17 01:32:21;;;;;;;8.27;7.67;;;;;;;12.42;100.00;100323.53;4984123;28;20232;-78
2021/09/17 01:34:47;;;;;;;9.07;8.17;;;;;;;12.39;100.00;100313.13;4990343;28;20577;-78
2021/09/17 01:37:14;;;;;;;8.30;7.70;;;;;;;12.37;100.00;100307.97;4983501;28;20687;-78
2021/09/17 01:39:41;;;;;;;8.40;7.80;;;;;;;12.42;100.00;100310.44;4990386;28;20729;-78
2021/09/17 01:42:08;;;;;;;9.17;7.70;;;;;;;12.44;100.00;100306.03;4978801;28;20353;-78
2021/09/17 01:44:36;;;;;;;8.27;7.57;;;;;;;12.43;100.00;100307.78;4987587;28;20233;-78
2021/09/17 01:47:03;;;;;;;7.00;6.40;;;;;;;12.57;100.00;100304.78;4992817;28;20683;-78
2021/09/17 01:49:30;;;;;;;7.17;6.57;;;;;;;12.73;100.00;100310.41;4992460;28;20243;-78
2021/09/17 01:51:56;;;;;;;6.70;6.20;;;;;;;12.75;100.00;100337.41;4985251;28;20209;-78
2021/09/17 01:54:22;;;;;;;5.53;4.67;;;;;;;12.86;100.00;100353.69;4985635;28;20201;-78
2021/09/17 01:56:50;;;;;;;4.80;4.30;;;;;;;13.01;99.51;100354.09;4988176;28;20613;-78
2021/09/17 01:59:17;;;;;;;7.70;7.07;;;;;;;13.03;99.02;100384.59;4982465;28;20252;-78
2021/09/17 02:01:43;;;;;;;7.23;6.73;;;;;;;13.03;98.45;100397.69;4993328;28;20732;-78
2021/09/17 02:04:10;;;;;;;8.37;7.63;;;;;;;12.86;98.20;100400.84;4985048;28;20251;-78
2021/09/17 02:06:36;;;;;;;9.90;9.13;;;;;;;12.93;99.32;100383.16;4983398;28;20262;-78
2021/09/17 02:09:03;;;;;;;9.53;8.87;;;;;;;12.85;99.80;100378.13;4982002;28;20673;-77
2021/09/17 02:11:29;;;;;;;9.20;8.43;;;;;;;12.88;99.73;100358.84;4990305;28;20228;-78
2021/09/17 02:14:01;;;;;;;8.87;8.13;;;;;;;12.93;99.53;100361.34;4985620;28;20205;-77
2021/09/17 02:16:27;;;;;;;10.47;9.67;;;;;;;12.96;99.28;100364.72;4993184;28;20238;-78
2021/09/17 02:18:53;;;;;;;8.53;7.83;;;;;;;13.04;99.50;100364.47;4993065;28;20196;-78
2021/09/17 02:21:21;;;;;;;8.77;8.17;;;;;;;13.05;99.04;100369.69;4985122;28;20248;-77
2021/09/17 02:23:48;;;;;;;10.20;9.30;;;;;;;13.07;99.35;100380.97;4993505;28;20203;-78
2021/09/17 02:26:15;;;;;;;9.27;8.60;;;;;;;13.18;98.64;100379.78;4988742;28;20205;-78
2021/09/17 02:28:42;;;;;;;9.00;8.10;;;;;;;13.17;98.68;100396.44;4980910;28;20248;-77
2021/09/17 02:31:10;;;;;;;9.47;8.70;;;;;;;13.09;98.55;100394.88;4989995;28;20220;-78
2021/09/17 02:33:36;;;;;;;9.23;8.33;;;;;;;13.22;98.42;100395.41;4989087;28;20204;-78
2021/09/17 02:36:03;;;;;;;9.73;8.83;;;;;;;13.08;98.53;100398.44;4982736;28;20235;-78
2021/09/17 02:38:30;;;;;;;9.50;8.53;;;;;;;13.03;98.71;100389.84;4986434;28;20204;-78
2021/09/17 02:40:56;;;;;;;9.67;9.07;;;;;;;12.94;98.84;100371.75;4984545;28;20304;-78
2021/09/17 02:43:23;;;;;;;9.03;8.30;;;;;;;12.94;99.75;100360.44;4996083;28;20271;-78
2021/09/17 02:45:49;;;;;;;9.43;8.63;;;;;;;13.01;99.42;100356.72;4990359;28;20630;-78
2021/09/17 02:48:17;;;;;;;9.17;8.57;;;;;;;13.00;99.78;100353.25;4993447;28;20239;-78
2021/09/17 02:50:43;;;;;;;9.77;8.90;;;;;;;12.96;99.89;100345.53;4982018;28;20268;-78
2021/09/17 02:53:09;;;;;;;9.33;8.63;;;;;;;12.96;100.00;100351.59;4983426;28;20312;-79
2021/09/17 02:55:36;;;;;;;9.80;8.87;;;;;;;13.03;100.00;100341.81;4982261;28;20230;-78
2021/09/17 02:58:03;;;;;;;9.20;8.33;;;;;;;13.11;100.00;100343.28;5000823;28;20246;-76
2021/09/17 03:00:30;;;;;;;8.37;7.77;;;;;;;13.13;99.75;100352.88;4991083;28;20224;-78
2021/09/17 03:02:57;;;;;;;8.50;7.70;;;;;;;13.08;100.00;100353.88;4991497;28;20197;-77
2021/09/17 03:05:24;;;;;;;8.77;8.07;;;;;;;13.17;100.00;100350.09;4997549;28;20208;-78
2021/09/17 03:07:51;;;;;;;9.20;8.43;;;;;;;13.27;100.00;100345.44;4993530;28;20204;-78
2021/09/17 03:10:17;;;;;;;9.27;8.37;;;;;;;13.26;99.39;100357.69;4991590;28;20216;-78
2021/09/17 03:12:43;;;;;;;9.07;8.17;;;;;;;13.33;99.58;100368.00;4989078;28;20201;-78
2021/09/17 03:15:10;;;;;;;9.07;8.27;;;;;;;13.27;99.47;100374.28;4987130;28;20246;-78
2021/09/17 03:17:37;;;;;;;10.27;9.30;;;;;;;13.28;99.53;100357.66;4999457;28;20213;-78
2021/09/17 03:20:05;;;;;;;8.97;8.07;;;;;;;13.30;99.52;100356.72;4998940;28;20682;-78
2021/09/17 03:22:32;;;;;;;8.20;7.60;;;;;;;13.31;99.78;100347.94;4998193;28;20256;-77
2021/09/17 03:24:59;;;;;;;10.33;9.27;;;;;;;13.32;100.00;100348.81;4989807;28;20219;-77
2021/09/17 03:27:25;;;;;;;9.07;8.00;;;;;;;13.28;100.00;100340.16;4987374;28;20621;-77
2021/09/17 03:29:51;;;;;;;8.47;7.77;;;;;;;13.36;100.00;100350.44;4995388;28;20216;-78
2021/09/17 03:32:18;;;;;;;9.70;8.20;;;;;;;13.37;99.71;100348.66;4988131;28;20301;-78
2021/09/17 03:34:46;;;;;;;8.47;7.67;;;;;;;13.35;100.00;100342.59;4987225;28;20247;-78
2021/09/17 03:37:12;;;;;;;8.57;7.90;;;;;;;13.36;100.00;100346.94;4995228;28;20200;-77
2021/09/17 03:39:40;;;;;;;7.57;7.07;;;;;;;13.41;100.00;100350.28;4986118;28;20224;-78
2021/09/17 03:42:07;;;;;;;8.40;7.60;;;;;;;13.51;99.86;100351.69;4987692;28;20252;-78
2021/09/17 03:44:34;;;;;;;6.60;6.10;;;;;;;13.55;99.42;100365.56;4995181;28;20213;-78
2021/09/17 03:47:01;;;;;;;6.73;6.23;;;;;;;13.59;99.38;100381.13;4995538;28;20204;-78
2021/09/17 03:49:28;;;;;;;9.50;6.10;;;;;;;13.59;99.12;100378.50;4987674;28;20276;-78
2021/09/17 03:51:54;;;;;;;5.73;5.20;;;;;;;13.60;99.24;100382.03;4994405;28;20208;-78
2021/09/17 03:54:21;;;;;;;6.87;4.90;;;;;;;13.65;98.65;100386.19;4981633;28;20332;-77
2021/09/17 03:56:49;;;;;;;6.00;5.57;;;;;;;13.74;98.41;100405.19;4984145;28;20208;-77
2021/09/17 03:59:15;;;;;;;5.33;4.93;;;;;;;13.74;98.41;100413.06;4983796;28;20248;-77
2021/09/17 04:01:44;;;;;;;5.57;5.07;;;;;;;13.74;97.94;100411.28;4983734;28;20267;-78
2021/09/17 04:04:11;;;;;;;6.17;5.67;;;;;;;13.74;98.18;100407.81;4987097;28;20199;-78
2021/09/17 04:06:37;;;;;;;6.63;6.10;;;;;;;13.73;99.43;100379.84;4986190;28;20235;-78
2021/09/17 04:09:03;;;;;;;6.43;5.83;;;;;;;13.69;99.57;100361.56;4976070;28;20386;-77
2021/09/17 04:11:30;;;;;;;6.20;5.77;;;;;;;13.68;100.00;100345.91;4989887;28;20200;-78
2021/09/17 04:13:57;;;;;;;7.37;6.77;;;;;;;13.65;100.00;100344.22;4993617;28;20239;-78
2021/09/17 04:16:24;;;;;;;7.87;7.37;;;;;;;13.63;100.00;100330.28;4989746;28;20228;-78
2021/09/17 04:18:50;;;;;;;7.83;6.80;;;;;;;13.62;100.00;100320.72;4983093;28;20636;-78
2021/09/17 04:21:16;;;;;;;7.53;6.83;;;;;;;13.61;100.00;100318.16;4993838;28;20525;-78
2021/09/17 04:23:43;;;;;;;7.30;6.77;;;;;;;13.62;100.00;100312.00;4979535;28;20686;-78
2021/09/17 04:26:09;;;;;;;7.33;6.80;;;;;;;13.63;100.00;100321.56;4993297;28;20760;-77
2021/09/17 04:28:35;;;;;;;8.27;7.47;;;;;;;13.65;100.00;100325.84;4994084;28;20227;-77
2021/09/17 04:31:03;;;;;;;7.80;6.97;;;;;;;13.66;100.00;100324.13;4992564;28;20250;-78
2021/09/17 04:33:29;;;;;;;12.80;8.37;;;;;;;13.58;100.00;100316.50;4989040;28;20232;-78
2021/09/17 04:35:56;;;;;;;9.77;8.93;;;;;;;13.58;100.00;100321.75;4996079;28;20204;-79
2021/09/17 04:38:24;;;;;;;9.30;8.47;;;;;;;13.60;100.00;100324.31;4987436;28;20270;-79
2021/09/17 04:40:50;;;;;;;8.80;8.07;;;;;;;13.63;100.00;100327.66;4990847;28;20629;-79
2021/09/17 04:43:17;;;;;;;10.63;9.90;;;;;;;13.60;100.00;100319.91;4995300;28;20243;-79
2021/09/17 04:45:43;;;;;;;10.10;9.20;;;;;;;13.62;100.00;100306.75;4992291;28;20705;-79
2021/09/17 04:48:13;;;;;;;11.00;9.90;;;;;;;13.58;100.00;100302.53;4995550;28;20570;-77
2021/09/17 04:50:40;;;;;;;11.80;10.70;;;;;;;13.47;100.00;100292.38;4981933;28;20221;-79
2021/09/17 04:53:07;;;;;;;13.90;12.50;;;;;;;13.46;100.00;100281.03;4987669;28;20217;-79
2021/09/17 04:55:34;;;;;;;14.63;13.43;;;;;;;13.47;100.00;100281.91;4985089;28;20205;-79
2021/09/17 04:58:02;;;;;;;15.30;13.90;;;;;;;13.51;100.00;100278.25;4986298;28;20233;-79
2021/09/17 05:00:29;;;;;;;13.13;11.77;;;;;;;13.56;100.00;100286.84;4985271;28;20581;-79
2021/09/17 05:02:55;;;;;;;15.30;13.77;;;;;;;13.51;100.00;100299.25;4987976;28;20220;-78
2021/09/17 05:05:23;;;;;;;17.73;14.30;;;;;;;13.45;100.00;100300.28;4983786;28;20228;-79
2021/09/17 05:07:49;;;;;;;15.60;14.10;;;;;;;13.42;100.00;100294.28;4985304;28;20240;-78
2021/09/17 05:10:15;;;;;;;17.07;14.43;;;;;;;13.44;100.00;100288.09;4983658;28;20248;-78
2021/09/17 05:12:42;;;;;;;14.53;13.17;;;;;;;13.40;100.00;100299.59;4982707;28;20224;-79
2021/09/17 05:15:09;;;;;;;12.73;11.63;;;;;;;13.44;100.00;100297.75;4984340;28;20208;-78
2021/09/17 05:17:36;;;;;;;12.80;11.57;;;;;;;13.46;100.00;100295.94;4987901;28;20228;-78
2021/09/17 05:20:02;;;;;;;11.73;10.80;;;;;;;13.44;100.00;100309.09;4982775;28;20258;-79
2021/09/17 05:22:30;;;;;;;12.67;11.37;;;;;;;13.45;100.00;100316.03;4987294;28;20713;-77
2021/09/17 05:24:57;;;;;;;12.40;11.30;;;;;;;13.45;100.00;100320.41;4982148;28;20228;-79
2021/09/17 05:27:25;;;;;;;10.93;10.03;;;;;;;13.47;100.00;100326.47;4983004;28;20204;-79
2021/09/17 05:29:52;;;;;;;13.83;10.13;;;;;;;13.46;100.00;100333.50;4984774;28;20220;-78
2021/09/17 05:32:19;;;;;;;12.40;11.40;;;;;;;13.44;100.00;100337.06;4985692;28;20248;-76
2021/09/17 05:34:45;;;;;;;12.20;11.20;;;;;;;13.44;100.00;100337.94;4982200;28;20205;-77
2021/09/17 05:37:11;;;;;;;12.30;10.87;;;;;;;13.50;100.00;100345.59;4984891;28;20195;-78
2021/09/17 05:39:39;;;;;;;12.40;11.20;;;;;;;13.52;100.00;100353.41;4981540;28;20255;-77
2021/09/17 05:42:06;;;;;;;13.27;11.87;;;;;;;13.55;100.00;100358.53;4982824;28;20729;-77
2021/09/17 05:44:32;;;;;;;11.50;10.40;;;;;;;13.62;100.00;100372.34;4981858;28;20201;-76
2021/09/17 05:46:59;;;;;;;11.93;10.80;;;;;;;13.61;100.00;100374.06;4986518;28;20618;-79
2021/09/17 05:49:25;;;;;;;11.90;10.70;;;;;;;13.63;100.00;100380.13;4983906;28;20263;-77
2021/09/17 05:51:51;;;;;;;12.90;11.80;;;;;;;13.67;100.00;100380.88;4980501;28;20255;-78
2021/09/17 05:54:18;;;;;;;12.23;11.03;;;;;;;13.69;100.00;100385.16;4983614;28;20263;-79
2021/09/17 05:56:45;;;;;;;13.07;10.90;;;;;;;13.69;100.00;100371.22;4979153;28;20644;-78
2021/09/17 05:59:12;;;;;;;10.97;10.07;;;;;;;13.70;100.00;100384.28;4980365;28;20502;-79
2021/09/17 06:01:38;;;;;;;11.57;10.60;;;;;;;13.72;100.00;100373.75;4983089;28;20291;-78
2021/09/17 06:04:05;;;;;;;11.57;10.60;;;;;;;13.78;100.00;100383.19;4982435;28;20209;-79
2021/09/17 06:06:31;;;;;;;10.90;9.90;;;;;;;13.84;100.00;100382.97;4985259;28;20205;-79
2021/09/17 06:08:58;;;;;;;9.77;8.87;;;;;;;13.97;100.00;100386.03;4983933;28;20259;-78
2021/09/17 06:11:24;;;;;;;9.60;8.80;;;;;;;14.06;100.00;100404.09;4984016;28;20212;-78
2021/09/17 06:13:52;;;;;;;9.37;8.67;;;;;;;14.09;100.00;100425.84;4983069;28;20667;-77
2021/09/17 06:16:19;;;;;;;8.90;8.20;;;;;;;14.13;100.00;100437.09;4983508;28;20244;-79
2021/09/17 06:18:45;;;;;;;10.10;8.43;;;;;;;14.15;100.00;100444.91;4986379;28;20656;-79
2021/09/17 06:21:11;;;;;;;8.90;8.20;;;;;;;14.05;100.00;100432.13;4981624;28;20205;-78
2021/09/17 06:23:38;;;;;;;9.87;9.10;;;;;;;13.97;100.00;100434.13;4983812;28;20319;-78
2021/09/17 06:26:04;;;;;;;8.97;8.10;;;;;;;14.05;100.00;100420.75;4981624;28;20236;-78
2021/09/17 06:28:30;;;;;;;8.70;7.90;;;;;;;14.02;100.00;100444.47;4980812;28;20232;-77
2021/09/17 06:30:58;;;;;;;9.27;8.27;;;;;;;14.12;100.00;100451.13;4984647;28;20221;-79
2021/09/17 06:33:24;;;;;;;9.30;8.40;;;;;;;13.99;100.00;100453.28;4983397;28;20234;-80
2021/09/17 06:35:51;;;;;;;8.47;7.63;;;;;;;14.02;100.00;100442.72;4985141;28;20200;-79
2021/09/17 06:38:17;;;;;;;7.47;6.93;;;;;;;14.05;100.00;100450.50;4987073;28;20207;-79
2021/09/17 06:40:44;;;;;;;7.83;7.13;;;;;;;13.96;100.00;100450.78;4982774;28;20306;-79
2021/09/17 06:43:10;;;;;;;6.90;6.30;;;;;;;14.01;100.00;100448.88;4984023;28;20260;-80
2021/09/17 06:45:36;;;;;;;7.37;6.70;;;;;;;14.00;100.00;100455.03;4986865;28;20235;-79
2021/09/17 06:48:05;;;;;;;7.07;6.57;;;;;;;14.03;100.00;100443.56;4985066;28;20629;-76
2021/09/17 06:50:32;;;;;;;7.00;6.27;;;;;;;14.08;100.00;100450.38;4983323;28;20252;-78
2021/09/17 06:52:59;;;;;;;7.03;5.60;;;;;;;14.11;100.00;100465.16;4982809;28;20205;-78
2021/09/17 06:55:27;;;;;;;6.20;5.70;;;;;;;14.10;99.89;100471.34;4984041;28;20590;-78
2021/09/17 06:57:55;;;;;;;6.27;5.87;;;;;;;14.07;99.90;100474.03;4984634;28;20204;-78
2021/09/17 07:00:23;;;;;;;6.10;5.60;;;;;;;14.10;99.18;100487.09;4983193;28;20278;-79
2021/09/17 07:02:49;;;;;;;6.23;5.73;;;;;;;14.12;99.28;100487.88;4982302;28;20219;-77
2021/09/17 07:05:17;;;;;;;7.00;6.07;;;;;;;14.18;99.23;100490.31;4982929;28;20238;-79
2021/09/17 07:07:44;;;;;;;5.70;5.33;;;;;;;14.32;98.80;100504.75;4983220;28;20200;-80
2021/09/17 07:10:12;;;;;;;6.10;5.60;;;;;;;14.23;98.97;100501.53;4983712;28;20224;-78
2021/09/17 07:12:39;;;;;;;6.00;5.50;;;;;;;14.25;98.47;100507.59;4981907;28;20207;-78
2021/09/17 07:15:07;;;;;;;7.20;6.50;;;;;;;14.25;98.54;100515.47;4984377;28;20258;-77
2021/09/17 07:17:34;;;;;;;8.07;7.37;;;;;;;14.38;98.78;100512.44;4984536;28;20267;-78
2021/09/17 07:20:00;;;;;;;8.53;7.77;;;;;;;14.41;98.35;100513.19;4981430;28;20303;-78
2021/09/17 07:22:29;;;;;;;10.53;9.73;;;;;;;14.48;99.07;100493.66;4981987;28;20295;-78
2021/09/17 07:24:55;;;;;;;8.27;7.57;;;;;;;14.44;98.59;100512.22;4981120;28;20691;-78
2021/09/17 07:27:22;;;;;;;6.80;6.20;;;;;;;14.46;97.79;100534.03;4984731;28;20626;-79
2021/09/17 07:29:48;;;;;;;6.53;5.93;;;;;;;14.50;97.84;100547.00;4984347;28;20255;-79
2021/09/17 07:32:14;;;;;;;6.10;5.60;;;;;;;14.58;97.61;100540.69;4984555;28;20200;-79
2021/09/17 07:34:41;;;;;;;5.07;4.40;;;;;;;14.59;96.82;100566.91;4988233;28;20228;-79
2021/09/17 07:37:08;;;;;;;5.60;5.10;;;;;;;14.74;96.55;100578.66;4987269;28;20672;-79
2021/09/17 07:39:36;;;;;;;4.47;4.17;;;;;;;14.84;95.69;100600.22;4986921;28;20264;-81
2021/09/17 07:42:03;;;;;;;5.37;4.63;;;;;;;14.88;96.04;100600.09;4991569;28;20200;-81
2021/09/17 07:44:30;;;;;;;6.87;3.83;;;;;;;15.00;95.50;100605.81;4990937;28;20232;-81
2021/09/17 07:46:57;;;;;;;3.30;3.00;;;;;;;15.04;94.03;100658.25;4999573;28;20738;-81
2021/09/17 07:49:23;;;;;;;3.23;2.90;;;;;;;15.07;93.27;100683.56;4990705;28;20223;-80
2021/09/17 07:51:49;;;;;;;3.77;3.27;;;;;;;15.13;92.94;100704.38;4988057;28;20210;-80
2021/09/17 07:54:16;;;;;;;6.30;3.23;;;;;;;15.23;93.04;100695.28;4990462;28;20198;-80
2021/09/17 07:56:43;;;;;;;3.20;3.00;;;;;;;15.23;92.17;100725.97;4992137;28;20205;-80
2021/09/17 07:59:10;;;;;;;2.20;2.00;;;;;;;15.25;91.59;100747.84;4989227;28;20232;-81
2021/09/17 08:01:36;;;;;;;4.27;2.73;;;;;;;15.27;90.97;100754.75;4990093;28;20239;-81
2021/09/17 08:04:03;;;;;;;3.70;3.03;;;;;;;15.27;90.22;100782.81;4988350;28;20217;-80
2021/09/17 08:06:29;;;;;;;3.40;3.10;;;;;;;15.27;89.94;100796.81;4987909;28;20244;-81
2021/09/17 08:08:56;;;;;;;3.30;3.00;;;;;;;15.29;89.20;100816.03;4998802;28;20211;-82
2021/09/17 08:11:22;;;;;;;3.40;3.10;;;;;;;15.24;88.91;100827.63;5007644;28;20534;-80
2021/09/17 08:13:49;;;;;;;3.83;2.90;;;;;;;15.19;89.13;100822.53;5001235;28;20223;-81
2021/09/17 08:16:16;;;;;;;3.27;2.67;;;;;;;15.16;88.11;100837.53;5000344;28;20240;-81
2021/09/17 08:18:44;;;;;;;5.07;2.97;;;;;;;15.21;87.90;100831.22;5004408;28;20216;-82
2021/09/17 08:21:11;;;;;;;4.33;2.70;;;;;;;15.24;87.81;100841.66;4999384;28;20243;-82
2021/09/17 08:23:37;;;;;;;3.87;2.47;;;;;;;15.26;85.85;100907.34;5005203;28;20245;-81
2021/09/17 08:26:04;;;;;;;4.20;2.70;;;;;;;15.32;86.89;100891.38;5002635;28;20259;-80
2021/09/17 08:28:30;;;;;;;2.30;2.07;;;;;;;15.35;85.54;100922.84;5019710;28;20208;-81
2021/09/17 08:31:00;;;;;;;1.80;1.70;;;;;;;15.36;83.90;100965.78;5019576;28;20770;-81
2021/09/17 08:33:27;;;;;;;1.70;1.37;;;;;;;15.41;83.64;100995.44;5005503;28;20200;-80
2021/09/17 08:35:53;;;;;;;2.13;1.70;;;;;;;15.49;82.24;101044.28;4999269;28;20213;-81
2021/09/17 08:38:20;;;;;;;2.07;1.20;;;;;;;15.60;82.90;101036.09;4999520;28;20287;-80
2021/09/17 08:40:46;;;;;;;2.50;1.20;;;;;;;15.70;82.37;101031.41;4998894;28;20725;-80
2021/09/17 08:43:14;;;;;;;4.73;1.10;;;;;;;15.71;80.42;101091.03;4998800;28;20263;-80
2021/09/17 08:45:40;;;;;;;4.27;1.20;;;;;;;15.72;81.17;101070.81;4999381;28;20210;-81
2021/09/17 08:48:09;;;;;;;0.90;0.80;;;;;;;15.80;81.71;101026.75;4999069;28;20251;-79
2021/09/17 08:50:35;;;;;;;0.70;0.70;;;;;;;15.92;79.66;101092.19;4998504;28;20671;-80
2021/09/17 08:53:02;;;;;;;2.10;0.80;;;;;;;16.00;79.35;101110.41;4996775;28;20246;-80
2021/09/17 08:55:28;;;;;;;1.20;0.70;;;;;;;16.07;78.38;101132.97;4997994;28;20216;-79
2021/09/17 08:57:56;;;;;;;0.90;0.90;;;;;;;16.01;77.53;101168.25;4995622;28;20237;-79
2021/09/17 09:00:39;;;;;;;1.27;0.50;;;;;;;16.03;75.47;101250.72;4999073;28;20237;-80
2021/09/17 09:03:09;;;;;;;1.37;0.50;;;;;;;15.98;75.45;101247.38;4997878;28;20239;-80
2021/09/17 09:05:38;;;;;;;1.70;0.80;;;;;;;16.08;77.01;101185.63;4997257;28;20731;-80
2021/09/17 09:08:06;;;;;;;1.67;0.80;;;;;;;16.24;75.88;101209.72;4998025;28;20238;-80
2021/09/17 09:10:33;;;;;;;1.83;0.60;;;;;;;16.23;75.81;101218.56;4998731;28;20233;-80
2021/09/17 09:13:04;;;;;;;1.00;0.80;;;;;;;16.25;73.72;101272.06;4997009;28;20205;-78
2021/09/17 09:15:32;;;;;;;2.60;0.60;;;;;;;16.37;75.31;101235.69;4996303;28;20211;-79
2021/09/17 09:18:00;;;;;;;1.23;0.90;;;;;;;16.29;73.62;101283.34;4996836;28;20203;-80
2021/09/17 09:20:30;;;;;;;2.00;0.70;;;;;;;16.27;73.23;101285.16;4995914;28;20227;-81
2021/09/17 09:23:14;;;;;;;1.10;0.70;;;;;;;16.38;74.14;101259.38;4996948;28;20258;-80
2021/09/17 09:25:56;;;;;;;3.40;0.87;;;;;;;16.41;73.83;101255.78;4996984;28;20674;-81
2021/09/17 09:28:23;;;;;;;1.97;1.03;;;;;;;16.43;73.60;101248.69;4996244;28;20204;-79
2021/09/17 09:30:51;;;;;;;0.90;0.70;;;;;;;16.42;74.46;101215.34;4994739;28;20302;-78
2021/09/17 09:33:30;;;;;;;1.07;0.90;;;;;;;16.40;74.43;101201.38;4995530;28;20687;-82
2021/09/17 09:36:04;;;;;;;0.93;0.83;;;;;;;16.51;75.00;101190.47;4996973;28;20237;-79
2021/09/17 09:38:34;;;;;;;1.50;0.80;;;;;;;16.61;75.01;101181.34;4996438;28;20268;-81
2021/09/17 09:41:03;;;;;;;1.83;1.00;;;;;;;16.58;74.37;101192.00;4997131;28;20231;-81
2021/09/17 09:43:31;;;;;;;2.93;1.00;;;;;;;16.49;74.65;101195.81;4997360;28;20233;-81
2021/09/17 09:46:25;;;;;;;1.57;0.90;;;;;;;16.46;72.53;101253.88;4996979;28;20236;-80
2021/09/17 09:49:09;;;;;;;0.90;0.73;;;;;;;16.41;73.82;101227.69;4996551;28;20255;-81
2021/09/17 09:51:39;;;;;;;1.77;0.73;;;;;;;16.50;73.76;101210.69;4993668;28;20223;-78
2021/09/17 09:54:07;;;;;;;0.90;0.80;;;;;;;16.60;74.94;101169.97;4992768;28;20216;-79
2021/09/17 09:56:36;;;;;;;1.10;0.80;;;;;;;16.73;75.01;101161.63;4986032;28;20619;-80
2021/09/17 09:59:04;;;;;;;1.33;0.70;;;;;;;16.53;73.11;101213.25;4983450;28;20225;-77
2021/09/17 10:01:33;;;;;;;2.17;0.90;;;;;;;16.46;73.16;101230.16;4983780;28;20199;-79
2021/09/17 10:04:01;;;;;;;0.60;0.60;;;;;;;16.46;73.21;101216.97;4979340;28;20791;-80
2021/09/17 10:06:28;;;;;;;1.07;0.57;;;;;;;16.47;72.52;101235.38;4974805;28;20979;-78
2021/09/17 10:08:55;;;;;;;2.30;0.70;;;;;;;16.70;71.87;101257.53;4975543;28;20208;-78
2021/09/17 10:11:23;;;;;;;0.67;0.60;;;;;;;16.90;71.00;101291.22;4977165;28;20222;-78
2021/09/17 10:13:50;;;;;;;1.43;0.60;;;;;;;16.91;70.27;101321.97;4995799;28;20202;-81
2021/09/17 10:16:18;;;;;;;1.10;0.63;;;;;;;16.97;71.46;101278.72;5005126;28;20206;-80
2021/09/17 10:18:45;;;;;;;1.80;0.60;;;;;;;16.93;70.99;101293.75;4998946;28;20217;-79
2021/09/17 10:21:13;;;;;;;0.90;0.60;;;;;;;16.74;70.59;101293.44;4313216;28;10000733;-79
2021/09/17 10:23:44;;;;;;;0.63;0.40;;;;;;;16.74;70.47;101282.88;4991696;28;20239;-79
2021/09/17 10:26:15;;;;;;;0.50;0.50;;;;;;;16.70;70.44;101297.06;4992840;28;20214;-80
2021/09/17 10:29:03;;;;;;;1.30;0.67;;;;;;;16.62;71.46;101259.53;4991863;28;20208;-80
2021/09/17 10:31:41;;;;;;;2.20;0.70;;;;;;;16.65;73.09;101175.09;4992392;28;20209;-79
2021/09/17 10:34:28;;;;;;;0.87;0.60;;;;;;;16.61;73.28;101171.69;4992943;28;20594;-78
2021/09/17 10:36:55;;;;;;;1.03;0.70;;;;;;;16.68;73.76;101154.75;4991585;28;20209;-80
2021/09/17 10:39:21;;;;;;;1.93;1.00;;;;;;;16.59;72.20;101207.78;4990549;28;20336;-79
2021/09/17 10:42:08;;;;;;;1.30;0.60;;;;;;;16.67;72.73;101204.91;4993444;28;20320;-80
2021/09/17 10:45:08;;;;;;;0.60;0.50;;;;;;;16.62;72.43;101205.03;4993020;28;20225;-80
2021/09/17 10:47:57;;;;;;;4.23;0.83;;;;;;;16.53;72.54;101194.81;4985910;28;20245;-78
2021/09/17 10:50:38;;;;;;;1.03;0.80;;;;;;;16.52;72.73;101174.63;4993228;28;20268;-80
2021/09/17 10:53:05;;;;;;;1.17;0.70;;;;;;;16.47;72.79;101177.41;5011468;28;20253;-79
2021/09/17 10:56:03;;;;;;;1.60;0.80;;;;;;;16.40;73.64;101167.09;5005549;28;20238;-79
2021/09/17 10:58:32;;;;;;;2.10;0.90;;;;;;;16.50;74.45;101113.19;4990571;28;20302;-77
2021/09/17 11:01:01;;;;;;;2.60;1.10;;;;;;;16.47;74.69;101087.81;4990428;28;20236;-79
2021/09/17 11:03:57;;;;;;;1.33;1.23;;;;;;;16.73;75.18;101074.63;4989881;28;20233;-77
2021/09/17 11:06:27;;;;;;;1.63;1.17;;;;;;;17.01;73.92;101111.53;4991024;28;20219;-78
2021/09/17 11:08:56;;;;;;;2.00;1.23;;;;;;;17.26;73.65;101127.31;4989601;28;20209;-80
2021/09/17 11:11:24;;;;;;;1.23;1.00;;;;;;;17.21;72.50;101180.25;4990646;28;20746;-79
2021/09/17 11:13:53;;;;;;;1.23;1.10;;;;;;;17.35;72.77;101152.53;4998310;28;20234;-79
2021/09/17 11:16:22;;;;;;;5.60;1.80;;;;;;;17.19;72.30;101170.69;4998643;28;20285;-79
2021/09/17 11:18:55;;;;;;;1.20;1.10;;;;;;;17.27;72.33;101179.19;4991131;28;20253;-79
2021/09/17 11:21:23;;;;;;;1.80;1.10;;;;;;;17.23;71.89;101185.50;4986382;28;20305;-81
2021/09/17 11:23:51;;;;;;;2.73;1.30;;;;;;;17.02;72.32;101177.38;4976276;28;20235;-79